sensor_id;sensor_type;location;lat;lon;timestamp;P1;durP1;ratioP1;P2;durP2;ratioP2
73283;SDS011;61519;60.050;18.582;2024-01-30T00:00:33;8.13;;;2.17;;
73283;SDS011;61519;60.050;18.582;2024-01-30T00:02:59;9.47;;;3.33;;
73283;SDS011;61519;60.050;18.582;2024-01-30T00:05:24;6.80;;;2.00;;
73283;SDS011;61519;60.050;18.582;2024-01-30T00:07:50;5.73;;;2.47;;
73283;SDS011;61519;60.050;18.582;2024-01-30T00:10:15;8.60;;;2.70;;
73283;SDS011;61519;60.050;18.582;2024-01-30T00:12:40;8.23;;;3.27;;
73283;SDS011;61519;60.050;18.582;2024-01-30T00:15:06;6.93;;;2.43;;
73283;SDS011;61519;60.050;18.582;2024-01-30T00:17:34;7.55;;;2.78;;
73283;SDS011;61519;60.050;18.582;2024-01-30T00:20:00;5.63;;;2.60;;
73283;SDS011;61519;60.050;18.582;2024-01-30T00:22:25;7.90;;;2.40;;
73283;SDS011;61519;60.050;18.582;2024-01-30T00:24:51;9.77;;;2.83;;
73283;SDS011;61519;60.050;18.582;2024-01-30T00:27:16;7.32;;;2.58;;
73283;SDS011;61519;60.050;18.582;2024-01-30T00:29:41;6.40;;;2.70;;
73283;SDS011;61519;60.050;18.582;2024-01-30T00:32:07;6.50;;;3.28;;
73283;SDS011;61519;60.050;18.582;2024-01-30T00:34:32;6.68;;;2.72;;
73283;SDS011;61519;60.050;18.582;2024-01-30T00:36:57;11.45;;;3.28;;
73283;SDS011;61519;60.050;18.582;2024-01-30T00:39:23;6.95;;;3.03;;
73283;SDS011;61519;60.050;18.582;2024-01-30T00:41:48;6.63;;;2.50;;
73283;SDS011;61519;60.050;18.582;2024-01-30T00:44:13;9.40;;;3.00;;
73283;SDS011;61519;60.050;18.582;2024-01-30T00:46:39;7.93;;;2.50;;
73283;SDS011;61519;60.050;18.582;2024-01-30T00:49:04;6.13;;;2.60;;
73283;SDS011;61519;60.050;18.582;2024-01-30T00:51:29;7.47;;;2.37;;
73283;SDS011;61519;60.050;18.582;2024-01-30T00:53:55;7.20;;;2.67;;
73283;SDS011;61519;60.050;18.582;2024-01-30T00:56:20;8.53;;;2.67;;
73283;SDS011;61519;60.050;18.582;2024-01-30T00:58:46;8.33;;;2.83;;
73283;SDS011;61519;60.050;18.582;2024-01-30T01:01:11;10.52;;;2.35;;
73283;SDS011;61519;60.050;18.582;2024-01-30T01:03:37;8.70;;;2.80;;
73283;SDS011;61519;60.050;18.582;2024-01-30T01:06:02;10.47;;;3.27;;
73283;SDS011;61519;60.050;18.582;2024-01-30T01:08:28;16.57;;;3.53;;
73283;SDS011;61519;60.050;18.582;2024-01-30T01:10:53;19.42;;;4.65;;
73283;SDS011;61519;60.050;18.582;2024-01-30T01:13:18;10.88;;;4.32;;
73283;SDS011;61519;60.050;18.582;2024-01-30T01:15:44;9.37;;;3.07;;
73283;SDS011;61519;60.050;18.582;2024-01-30T01:18:09;13.73;;;4.07;;
73283;SDS011;61519;60.050;18.582;2024-01-30T01:20:34;10.03;;;3.53;;
73283;SDS011;61519;60.050;18.582;2024-01-30T01:23:00;9.40;;;3.37;;
73283;SDS011;61519;60.050;18.582;2024-01-30T01:25:25;11.83;;;3.23;;
73283;SDS011;61519;60.050;18.582;2024-01-30T01:27:51;10.90;;;3.63;;
73283;SDS011;61519;60.050;18.582;2024-01-30T01:30:17;9.13;;;3.13;;
73283;SDS011;61519;60.050;18.582;2024-01-30T01:32:47;11.15;;;3.35;;
73283;SDS011;61519;60.050;18.582;2024-01-30T01:35:19;9.27;;;3.20;;
73283;SDS011;61519;60.050;18.582;2024-01-30T01:37:49;10.70;;;3.13;;
73283;SDS011;61519;60.050;18.582;2024-01-30T01:40:20;8.70;;;3.33;;
73283;SDS011;61519;60.050;18.582;2024-01-30T01:42:47;8.15;;;3.17;;
73283;SDS011;61519;60.050;18.582;2024-01-30T01:45:13;8.60;;;2.90;;
73283;SDS011;61519;60.050;18.582;2024-01-30T01:47:38;11.82;;;3.63;;
73283;SDS011;61519;60.050;18.582;2024-01-30T01:50:04;8.52;;;3.33;;
73283;SDS011;61519;60.050;18.582;2024-01-30T01:52:30;8.90;;;3.57;;
73283;SDS011;61519;60.050;18.582;2024-01-30T01:54:55;9.33;;;3.90;;
73283;SDS011;61519;60.050;18.582;2024-01-30T01:57:20;8.03;;;3.47;;
73283;SDS011;61519;60.050;18.582;2024-01-30T01:59:46;10.07;;;3.15;;
73283;SDS011;61519;60.050;18.582;2024-01-30T02:02:12;10.30;;;3.85;;
73283;SDS011;61519;60.050;18.582;2024-01-30T02:04:42;10.87;;;3.83;;
73283;SDS011;61519;60.050;18.582;2024-01-30T02:07:08;7.25;;;3.30;;
73283;SDS011;61519;60.050;18.582;2024-01-30T02:09:34;10.25;;;3.13;;
73283;SDS011;61519;60.050;18.582;2024-01-30T02:12:00;8.65;;;3.55;;
73283;SDS011;61519;60.050;18.582;2024-01-30T02:14:25;10.90;;;2.93;;
73283;SDS011;61519;60.050;18.582;2024-01-30T02:16:50;12.93;;;3.30;;
73283;SDS011;61519;60.050;18.582;2024-01-30T02:19:16;9.63;;;3.73;;
73283;SDS011;61519;60.050;18.582;2024-01-30T02:21:41;8.40;;;3.67;;
73283;SDS011;61519;60.050;18.582;2024-01-30T02:24:06;14.10;;;3.27;;
73283;SDS011;61519;60.050;18.582;2024-01-30T02:26:32;7.87;;;2.87;;
73283;SDS011;61519;60.050;18.582;2024-01-30T02:28:57;7.20;;;3.27;;
73283;SDS011;61519;60.050;18.582;2024-01-30T02:31:22;11.47;;;3.60;;
73283;SDS011;61519;60.050;18.582;2024-01-30T02:33:50;12.43;;;3.58;;
73283;SDS011;61519;60.050;18.582;2024-01-30T02:36:15;12.40;;;4.47;;
73283;SDS011;61519;60.050;18.582;2024-01-30T02:38:41;7.60;;;3.07;;
73283;SDS011;61519;60.050;18.582;2024-01-30T02:41:06;9.47;;;3.50;;
73283;SDS011;61519;60.050;18.582;2024-01-30T02:43:31;8.37;;;3.10;;
73283;SDS011;61519;60.050;18.582;2024-01-30T02:45:57;8.13;;;2.77;;
73283;SDS011;61519;60.050;18.582;2024-01-30T02:48:24;9.15;;;3.22;;
73283;SDS011;61519;60.050;18.582;2024-01-30T02:50:50;9.57;;;3.90;;
73283;SDS011;61519;60.050;18.582;2024-01-30T02:53:15;14.30;;;4.30;;
73283;SDS011;61519;60.050;18.582;2024-01-30T02:55:40;10.27;;;3.40;;
73283;SDS011;61519;60.050;18.582;2024-01-30T02:58:06;12.83;;;4.97;;
73283;SDS011;61519;60.050;18.582;2024-01-30T03:00:31;15.18;;;3.83;;
73283;SDS011;61519;60.050;18.582;2024-01-30T03:02:57;11.00;;;4.07;;
73283;SDS011;61519;60.050;18.582;2024-01-30T03:05:22;9.27;;;3.47;;
73283;SDS011;61519;60.050;18.582;2024-01-30T03:07:47;11.20;;;3.83;;
73283;SDS011;61519;60.050;18.582;2024-01-30T03:10:13;15.37;;;3.50;;
73283;SDS011;61519;60.050;18.582;2024-01-30T03:12:38;14.93;;;3.87;;
73283;SDS011;61519;60.050;18.582;2024-01-30T03:15:03;11.93;;;3.70;;
73283;SDS011;61519;60.050;18.582;2024-01-30T03:17:29;12.90;;;4.05;;
73283;SDS011;61519;60.050;18.582;2024-01-30T03:19:54;8.07;;;3.58;;
73283;SDS011;61519;60.050;18.582;2024-01-30T03:22:19;11.03;;;3.57;;
73283;SDS011;61519;60.050;18.582;2024-01-30T03:24:45;11.13;;;3.80;;
73283;SDS011;61519;60.050;18.582;2024-01-30T03:27:10;10.03;;;3.57;;
73283;SDS011;61519;60.050;18.582;2024-01-30T03:29:36;10.87;;;3.17;;
73283;SDS011;61519;60.050;18.582;2024-01-30T03:32:01;9.77;;;3.40;;
73283;SDS011;61519;60.050;18.582;2024-01-30T03:34:28;9.57;;;3.35;;
73283;SDS011;61519;60.050;18.582;2024-01-30T03:36:54;9.43;;;3.87;;
73283;SDS011;61519;60.050;18.582;2024-01-30T03:39:19;10.80;;;4.13;;
73283;SDS011;61519;60.050;18.582;2024-01-30T03:41:44;10.73;;;3.57;;
73283;SDS011;61519;60.050;18.582;2024-01-30T03:44:10;8.37;;;3.50;;
73283;SDS011;61519;60.050;18.582;2024-01-30T03:46:36;14.10;;;3.72;;
73283;SDS011;61519;60.050;18.582;2024-01-30T03:49:01;15.23;;;3.83;;
73283;SDS011;61519;60.050;18.582;2024-01-30T03:51:28;8.03;;;3.17;;
73283;SDS011;61519;60.050;18.582;2024-01-30T03:53:53;9.23;;;3.60;;
73283;SDS011;61519;60.050;18.582;2024-01-30T03:56:18;7.75;;;3.15;;
73283;SDS011;61519;60.050;18.582;2024-01-30T03:58:44;10.27;;;3.73;;
73283;SDS011;61519;60.050;18.582;2024-01-30T04:01:12;9.93;;;3.30;;
73283;SDS011;61519;60.050;18.582;2024-01-30T04:03:41;10.82;;;3.90;;
73283;SDS011;61519;60.050;18.582;2024-01-30T04:06:08;7.90;;;3.28;;
73283;SDS011;61519;60.050;18.582;2024-01-30T04:08:34;11.07;;;4.43;;
73283;SDS011;61519;60.050;18.582;2024-01-30T04:11:02;9.63;;;3.13;;
73283;SDS011;61519;60.050;18.582;2024-01-30T04:13:29;9.02;;;2.53;;
73283;SDS011;61519;60.050;18.582;2024-01-30T04:15:54;8.97;;;3.20;;
73283;SDS011;61519;60.050;18.582;2024-01-30T04:18:20;8.68;;;3.25;;
73283;SDS011;61519;60.050;18.582;2024-01-30T04:20:45;6.17;;;3.13;;
73283;SDS011;61519;60.050;18.582;2024-01-30T04:23:11;10.57;;;3.40;;
73283;SDS011;61519;60.050;18.582;2024-01-30T04:25:36;9.37;;;3.73;;
73283;SDS011;61519;60.050;18.582;2024-01-30T04:28:01;10.83;;;3.30;;
73283;SDS011;61519;60.050;18.582;2024-01-30T04:30:26;7.10;;;3.40;;
73283;SDS011;61519;60.050;18.582;2024-01-30T04:32:52;9.67;;;3.20;;
73283;SDS011;61519;60.050;18.582;2024-01-30T04:35:17;9.53;;;3.60;;
73283;SDS011;61519;60.050;18.582;2024-01-30T04:37:42;11.10;;;4.00;;
73283;SDS011;61519;60.050;18.582;2024-01-30T04:40:08;8.47;;;3.30;;
73283;SDS011;61519;60.050;18.582;2024-01-30T04:42:34;12.32;;;3.72;;
73283;SDS011;61519;60.050;18.582;2024-01-30T04:44:59;7.73;;;3.27;;
73283;SDS011;61519;60.050;18.582;2024-01-30T04:47:25;10.70;;;3.07;;
73283;SDS011;61519;60.050;18.582;2024-01-30T04:49:51;10.77;;;3.35;;
73283;SDS011;61519;60.050;18.582;2024-01-30T04:52:16;13.37;;;3.10;;
73283;SDS011;61519;60.050;18.582;2024-01-30T04:54:42;8.77;;;3.33;;
73283;SDS011;61519;60.050;18.582;2024-01-30T04:57:07;10.90;;;3.13;;
73283;SDS011;61519;60.050;18.582;2024-01-30T04:59:34;14.50;;;3.67;;
73283;SDS011;61519;60.050;18.582;2024-01-30T05:02:00;10.80;;;3.00;;
73283;SDS011;61519;60.050;18.582;2024-01-30T05:04:26;7.50;;;3.33;;
73283;SDS011;61519;60.050;18.582;2024-01-30T05:06:51;8.30;;;3.27;;
73283;SDS011;61519;60.050;18.582;2024-01-30T05:09:16;7.53;;;3.30;;
73283;SDS011;61519;60.050;18.582;2024-01-30T05:11:42;11.10;;;3.37;;
73283;SDS011;61519;60.050;18.582;2024-01-30T05:14:07;10.70;;;3.35;;
73283;SDS011;61519;60.050;18.582;2024-01-30T05:16:33;11.32;;;3.65;;
73283;SDS011;61519;60.050;18.582;2024-01-30T05:18:59;9.15;;;3.47;;
73283;SDS011;61519;60.050;18.582;2024-01-30T05:21:25;10.60;;;3.50;;
73283;SDS011;61519;60.050;18.582;2024-01-30T05:23:50;8.53;;;3.37;;
73283;SDS011;61519;60.050;18.582;2024-01-30T05:26:16;8.27;;;3.40;;
73283;SDS011;61519;60.050;18.582;2024-01-30T05:28:41;8.38;;;2.83;;
73283;SDS011;61519;60.050;18.582;2024-01-30T05:31:06;7.23;;;3.00;;
73283;SDS011;61519;60.050;18.582;2024-01-30T05:33:32;10.47;;;3.40;;
73283;SDS011;61519;60.050;18.582;2024-01-30T05:35:57;8.47;;;3.23;;
73283;SDS011;61519;60.050;18.582;2024-01-30T05:38:22;8.17;;;3.30;;
73283;SDS011;61519;60.050;18.582;2024-01-30T05:40:48;8.63;;;3.43;;
73283;SDS011;61519;60.050;18.582;2024-01-30T05:43:13;10.53;;;3.50;;
73283;SDS011;61519;60.050;18.582;2024-01-30T05:45:38;9.10;;;3.70;;
73283;SDS011;61519;60.050;18.582;2024-01-30T05:48:04;9.37;;;3.47;;
73283;SDS011;61519;60.050;18.582;2024-01-30T05:50:30;11.88;;;3.10;;
73283;SDS011;61519;60.050;18.582;2024-01-30T05:52:55;9.43;;;4.00;;
73283;SDS011;61519;60.050;18.582;2024-01-30T05:55:21;9.07;;;3.00;;
73283;SDS011;61519;60.050;18.582;2024-01-30T05:57:46;12.23;;;3.90;;
73283;SDS011;61519;60.050;18.582;2024-01-30T06:00:11;10.47;;;3.93;;
73283;SDS011;61519;60.050;18.582;2024-01-30T06:02:37;9.00;;;3.13;;
73283;SDS011;61519;60.050;18.582;2024-01-30T06:05:03;8.20;;;3.47;;
73283;SDS011;61519;60.050;18.582;2024-01-30T06:07:28;7.90;;;3.22;;
73283;SDS011;61519;60.050;18.582;2024-01-30T06:09:54;10.40;;;3.65;;
73283;SDS011;61519;60.050;18.582;2024-01-30T06:12:19;9.75;;;3.60;;
73283;SDS011;61519;60.050;18.582;2024-01-30T06:14:44;8.77;;;3.13;;
73283;SDS011;61519;60.050;18.582;2024-01-30T06:17:10;6.93;;;3.07;;
73283;SDS011;61519;60.050;18.582;2024-01-30T06:19:36;7.28;;;3.22;;
73283;SDS011;61519;60.050;18.582;2024-01-30T06:22:02;7.13;;;3.17;;
73283;SDS011;61519;60.050;18.582;2024-01-30T06:24:27;7.67;;;3.07;;
73283;SDS011;61519;60.050;18.582;2024-01-30T06:26:53;8.93;;;3.40;;
73283;SDS011;61519;60.050;18.582;2024-01-30T06:29:18;10.90;;;3.00;;
73283;SDS011;61519;60.050;18.582;2024-01-30T06:31:43;6.33;;;3.33;;
73283;SDS011;61519;60.050;18.582;2024-01-30T06:34:09;9.90;;;3.50;;
73283;SDS011;61519;60.050;18.582;2024-01-30T06:36:36;7.20;;;3.22;;
73283;SDS011;61519;60.050;18.582;2024-01-30T06:39:02;8.00;;;2.90;;
73283;SDS011;61519;60.050;18.582;2024-01-30T06:41:27;11.45;;;3.42;;
73283;SDS011;61519;60.050;18.582;2024-01-30T06:43:53;9.67;;;4.00;;
73283;SDS011;61519;60.050;18.582;2024-01-30T06:46:18;7.80;;;3.53;;
73283;SDS011;61519;60.050;18.582;2024-01-30T06:48:43;9.67;;;3.13;;
73283;SDS011;61519;60.050;18.582;2024-01-30T06:51:10;8.00;;;2.88;;
73283;SDS011;61519;60.050;18.582;2024-01-30T06:53:36;10.33;;;3.67;;
73283;SDS011;61519;60.050;18.582;2024-01-30T06:56:01;10.75;;;3.63;;
73283;SDS011;61519;60.050;18.582;2024-01-30T06:58:27;8.53;;;3.23;;
73283;SDS011;61519;60.050;18.582;2024-01-30T07:00:54;7.77;;;3.40;;
73283;SDS011;61519;60.050;18.582;2024-01-30T07:03:19;7.82;;;3.30;;
73283;SDS011;61519;60.050;18.582;2024-01-30T07:05:44;10.43;;;3.43;;
73283;SDS011;61519;60.050;18.582;2024-01-30T07:08:10;8.43;;;3.00;;
73283;SDS011;61519;60.050;18.582;2024-01-30T07:10:35;7.93;;;3.43;;
73283;SDS011;61519;60.050;18.582;2024-01-30T07:13:01;6.87;;;3.80;;
73283;SDS011;61519;60.050;18.582;2024-01-30T07:15:26;6.70;;;3.07;;
73283;SDS011;61519;60.050;18.582;2024-01-30T07:17:51;9.77;;;3.20;;
73283;SDS011;61519;60.050;18.582;2024-01-30T07:20:17;9.33;;;3.30;;
73283;SDS011;61519;60.050;18.582;2024-01-30T07:22:45;6.73;;;2.90;;
73283;SDS011;61519;60.050;18.582;2024-01-30T07:25:10;10.48;;;3.13;;
73283;SDS011;61519;60.050;18.582;2024-01-30T07:27:36;7.73;;;3.03;;
73283;SDS011;61519;60.050;18.582;2024-01-30T07:30:01;7.63;;;3.30;;
73283;SDS011;61519;60.050;18.582;2024-01-30T07:32:27;8.03;;;2.93;;
73283;SDS011;61519;60.050;18.582;2024-01-30T07:34:52;7.53;;;3.63;;
73283;SDS011;61519;60.050;18.582;2024-01-30T07:37:17;7.03;;;2.80;;
73283;SDS011;61519;60.050;18.582;2024-01-30T07:39:43;8.50;;;3.63;;
73283;SDS011;61519;60.050;18.582;2024-01-30T07:42:09;10.38;;;3.50;;
73283;SDS011;61519;60.050;18.582;2024-01-30T07:44:34;11.00;;;3.00;;
73283;SDS011;61519;60.050;18.582;2024-01-30T07:46:59;7.67;;;2.90;;
73283;SDS011;61519;60.050;18.582;2024-01-30T07:49:25;8.20;;;3.03;;
73283;SDS011;61519;60.050;18.582;2024-01-30T07:51:50;11.10;;;4.37;;
73283;SDS011;61519;60.050;18.582;2024-01-30T07:54:16;12.00;;;3.58;;
73283;SDS011;61519;60.050;18.582;2024-01-30T07:56:41;10.13;;;4.00;;
73283;SDS011;61519;60.050;18.582;2024-01-30T07:59:09;10.47;;;4.20;;
73283;SDS011;61519;60.050;18.582;2024-01-30T08:01:35;11.23;;;4.55;;
73283;SDS011;61519;60.050;18.582;2024-01-30T08:04:00;9.00;;;4.60;;
73283;SDS011;61519;60.050;18.582;2024-01-30T08:06:25;9.77;;;4.23;;
73283;SDS011;61519;60.050;18.582;2024-01-30T08:08:51;10.30;;;4.93;;
73283;SDS011;61519;60.050;18.582;2024-01-30T08:11:19;10.30;;;5.15;;
73283;SDS011;61519;60.050;18.582;2024-01-30T08:13:45;12.67;;;5.30;;
73283;SDS011;61519;60.050;18.582;2024-01-30T08:16:10;9.47;;;4.53;;
73283;SDS011;61519;60.050;18.582;2024-01-30T08:18:35;9.83;;;4.80;;
73283;SDS011;61519;60.050;18.582;2024-01-30T08:21:01;13.40;;;5.30;;
73283;SDS011;61519;60.050;18.582;2024-01-30T08:23:26;11.20;;;4.75;;
73283;SDS011;61519;60.050;18.582;2024-01-30T08:25:52;15.83;;;4.90;;
73283;SDS011;61519;60.050;18.582;2024-01-30T08:28:17;9.40;;;4.13;;
73283;SDS011;61519;60.050;18.582;2024-01-30T08:30:43;9.10;;;4.03;;
73283;SDS011;61519;60.050;18.582;2024-01-30T08:33:08;9.27;;;4.10;;
73283;SDS011;61519;60.050;18.582;2024-01-30T08:35:33;10.13;;;4.40;;
73283;SDS011;61519;60.050;18.582;2024-01-30T08:37:59;9.77;;;4.43;;
73283;SDS011;61519;60.050;18.582;2024-01-30T08:40:25;11.98;;;5.78;;
73283;SDS011;61519;60.050;18.582;2024-01-30T08:42:50;14.90;;;6.03;;
73283;SDS011;61519;60.050;18.582;2024-01-30T08:45:15;31.23;;;14.23;;
73283;SDS011;61519;60.050;18.582;2024-01-30T08:47:41;18.00;;;7.82;;
73283;SDS011;61519;60.050;18.582;2024-01-30T08:50:06;12.57;;;5.65;;
73283;SDS011;61519;60.050;18.582;2024-01-30T08:52:32;12.67;;;5.83;;
73283;SDS011;61519;60.050;18.582;2024-01-30T08:54:59;11.25;;;4.63;;
73283;SDS011;61519;60.050;18.582;2024-01-30T08:57:24;12.17;;;4.20;;
73283;SDS011;61519;60.050;18.582;2024-01-30T08:59:53;12.93;;;4.38;;
73283;SDS011;61519;60.050;18.582;2024-01-30T09:02:19;14.60;;;4.40;;
73283;SDS011;61519;60.050;18.582;2024-01-30T09:04:44;10.07;;;4.17;;
73283;SDS011;61519;60.050;18.582;2024-01-30T09:07:09;8.80;;;3.53;;
73283;SDS011;61519;60.050;18.582;2024-01-30T09:09:35;12.65;;;3.65;;
73283;SDS011;61519;60.050;18.582;2024-01-30T09:12:00;10.57;;;3.67;;
73283;SDS011;61519;60.050;18.582;2024-01-30T09:14:31;7.77;;;3.50;;
73283;SDS011;61519;60.050;18.582;2024-01-30T09:16:57;9.53;;;4.70;;
73283;SDS011;61519;60.050;18.582;2024-01-30T09:19:22;9.67;;;4.20;;
73283;SDS011;61519;60.050;18.582;2024-01-30T09:21:47;11.23;;;3.75;;
73283;SDS011;61519;60.050;18.582;2024-01-30T09:24:13;10.75;;;4.25;;
73283;SDS011;61519;60.050;18.582;2024-01-30T09:26:38;10.15;;;4.38;;
73283;SDS011;61519;60.050;18.582;2024-01-30T09:29:03;8.73;;;3.97;;
73283;SDS011;61519;60.050;18.582;2024-01-30T09:31:29;10.13;;;4.33;;
73283;SDS011;61519;60.050;18.582;2024-01-30T09:33:54;10.23;;;4.50;;
73283;SDS011;61519;60.050;18.582;2024-01-30T09:36:20;12.60;;;5.03;;
73283;SDS011;61519;60.050;18.582;2024-01-30T09:38:45;13.50;;;4.70;;
73283;SDS011;61519;60.050;18.582;2024-01-30T09:41:10;12.02;;;4.70;;
73283;SDS011;61519;60.050;18.582;2024-01-30T09:43:36;13.10;;;5.73;;
73283;SDS011;61519;60.050;18.582;2024-01-30T09:46:03;16.15;;;4.70;;
73283;SDS011;61519;60.050;18.582;2024-01-30T09:48:30;13.90;;;5.30;;
73283;SDS011;61519;60.050;18.582;2024-01-30T09:50:57;16.38;;;5.30;;
73283;SDS011;61519;60.050;18.582;2024-01-30T09:53:22;12.20;;;5.22;;
73283;SDS011;61519;60.050;18.582;2024-01-30T09:55:48;14.90;;;4.63;;
73283;SDS011;61519;60.050;18.582;2024-01-30T09:58:15;13.02;;;5.38;;
73283;SDS011;61519;60.050;18.582;2024-01-30T10:00:41;11.63;;;4.10;;
73283;SDS011;61519;60.050;18.582;2024-01-30T10:03:06;11.30;;;4.00;;
73283;SDS011;61519;60.050;18.582;2024-01-30T10:05:31;8.73;;;4.00;;
73283;SDS011;61519;60.050;18.582;2024-01-30T10:07:59;14.88;;;4.63;;
73283;SDS011;61519;60.050;18.582;2024-01-30T10:10:24;10.20;;;4.20;;
73283;SDS011;61519;60.050;18.582;2024-01-30T10:12:50;10.63;;;4.03;;
73283;SDS011;61519;60.050;18.582;2024-01-30T10:15:16;10.50;;;3.65;;
73283;SDS011;61519;60.050;18.582;2024-01-30T10:17:44;12.87;;;4.07;;
73283;SDS011;61519;60.050;18.582;2024-01-30T10:20:10;7.95;;;3.72;;
73283;SDS011;61519;60.050;18.582;2024-01-30T10:22:35;7.65;;;3.50;;
73283;SDS011;61519;60.050;18.582;2024-01-30T10:25:01;7.07;;;3.20;;
73283;SDS011;61519;60.050;18.582;2024-01-30T10:27:26;9.80;;;3.63;;
73283;SDS011;61519;60.050;18.582;2024-01-30T10:29:52;8.37;;;2.93;;
73283;SDS011;61519;60.050;18.582;2024-01-30T10:32:17;7.57;;;3.20;;
73283;SDS011;61519;60.050;18.582;2024-01-30T10:34:44;6.73;;;3.00;;
73283;SDS011;61519;60.050;18.582;2024-01-30T10:37:10;10.00;;;4.07;;
73283;SDS011;61519;60.050;18.582;2024-01-30T10:39:42;7.88;;;3.38;;
73283;SDS011;61519;60.050;18.582;2024-01-30T10:42:14;9.05;;;3.40;;
73283;SDS011;61519;60.050;18.582;2024-01-30T10:45:14;6.75;;;3.00;;
73283;SDS011;61519;60.050;18.582;2024-01-30T10:47:41;9.35;;;3.70;;
73283;SDS011;61519;60.050;18.582;2024-01-30T10:50:13;8.38;;;3.47;;
73283;SDS011;61519;60.050;18.582;2024-01-30T10:52:39;9.93;;;3.45;;
73283;SDS011;61519;60.050;18.582;2024-01-30T10:55:07;10.70;;;4.13;;
73283;SDS011;61519;60.050;18.582;2024-01-30T10:57:36;13.05;;;4.03;;
73283;SDS011;61519;60.050;18.582;2024-01-30T11:00:03;11.65;;;4.25;;
73283;SDS011;61519;60.050;18.582;2024-01-30T11:02:37;7.80;;;3.75;;
73283;SDS011;61519;60.050;18.582;2024-01-30T11:05:04;13.50;;;4.93;;
73283;SDS011;61519;60.050;18.582;2024-01-30T11:07:30;12.25;;;4.43;;
73283;SDS011;61519;60.050;18.582;2024-01-30T11:12:26;13.10;;;4.32;;
73283;SDS011;61519;60.050;18.582;2024-01-30T11:20:15;28.20;;;4.93;;
73283;SDS011;61519;60.050;18.582;2024-01-30T11:23:00;19.67;;;4.40;;
73283;SDS011;61519;60.050;18.582;2024-01-30T11:25:31;18.40;;;4.68;;
73283;SDS011;61519;60.050;18.582;2024-01-30T11:27:57;30.42;;;4.55;;
73283;SDS011;61519;60.050;18.582;2024-01-30T11:30:29;23.13;;;4.38;;
73283;SDS011;61519;60.050;18.582;2024-01-30T11:35:37;23.50;;;4.95;;
73283;SDS011;61519;60.050;18.582;2024-01-30T11:38:15;17.88;;;4.70;;
73283;SDS011;61519;60.050;18.582;2024-01-30T11:40:41;27.30;;;5.80;;
73283;SDS011;61519;60.050;18.582;2024-01-30T11:43:24;27.67;;;4.53;;
73283;SDS011;61519;60.050;18.582;2024-01-30T11:45:50;21.15;;;4.63;;
73283;SDS011;61519;60.050;18.582;2024-01-30T11:48:16;14.25;;;4.32;;
73283;SDS011;61519;60.050;18.582;2024-01-30T11:50:42;18.33;;;3.33;;
73283;SDS011;61519;60.050;18.582;2024-01-30T11:53:09;28.92;;;5.00;;
73283;SDS011;61519;60.050;18.582;2024-01-30T11:55:35;20.77;;;4.27;;
73283;SDS011;61519;60.050;18.582;2024-01-30T11:58:02;24.92;;;4.50;;
73283;SDS011;61519;60.050;18.582;2024-01-30T12:00:29;33.90;;;3.90;;
73283;SDS011;61519;60.050;18.582;2024-01-30T12:02:55;24.63;;;3.90;;
73283;SDS011;61519;60.050;18.582;2024-01-30T12:05:22;16.08;;;4.93;;
73283;SDS011;61519;60.050;18.582;2024-01-30T12:07:48;24.38;;;4.45;;
73283;SDS011;61519;60.050;18.582;2024-01-30T12:10:13;28.97;;;3.97;;
73283;SDS011;61519;60.050;18.582;2024-01-30T12:12:39;19.95;;;4.32;;
73283;SDS011;61519;60.050;18.582;2024-01-30T12:15:07;18.93;;;3.67;;
73283;SDS011;61519;60.050;18.582;2024-01-30T12:17:33;14.13;;;3.80;;
73283;SDS011;61519;60.050;18.582;2024-01-30T12:20:09;9.80;;;3.88;;
73283;SDS011;61519;60.050;18.582;2024-01-30T12:22:40;20.53;;;4.50;;
73283;SDS011;61519;60.050;18.582;2024-01-30T12:25:07;23.95;;;4.28;;
73283;SDS011;61519;60.050;18.582;2024-01-30T12:27:37;15.32;;;3.88;;
73283;SDS011;61519;60.050;18.582;2024-01-30T12:30:10;14.50;;;4.10;;
73283;SDS011;61519;60.050;18.582;2024-01-30T12:32:37;24.88;;;4.05;;
73283;SDS011;61519;60.050;18.582;2024-01-30T12:35:15;11.02;;;4.05;;
73283;SDS011;61519;60.050;18.582;2024-01-30T12:37:45;31.55;;;4.38;;
73283;SDS011;61519;60.050;18.582;2024-01-30T12:40:12;13.93;;;4.17;;
73283;SDS011;61519;60.050;18.582;2024-01-30T12:42:39;9.52;;;3.55;;
73283;SDS011;61519;60.050;18.582;2024-01-30T12:45:11;11.65;;;4.22;;
73283;SDS011;61519;60.050;18.582;2024-01-30T12:47:36;14.57;;;4.23;;
73283;SDS011;61519;60.050;18.582;2024-01-30T12:50:01;13.17;;;4.43;;
73283;SDS011;61519;60.050;18.582;2024-01-30T12:52:27;22.33;;;4.27;;
73283;SDS011;61519;60.050;18.582;2024-01-30T12:54:54;10.20;;;4.35;;
73283;SDS011;61519;60.050;18.582;2024-01-30T12:57:19;10.67;;;4.03;;
73283;SDS011;61519;60.050;18.582;2024-01-30T12:59:45;11.37;;;4.00;;
73283;SDS011;61519;60.050;18.582;2024-01-30T13:02:12;11.70;;;4.05;;
73283;SDS011;61519;60.050;18.582;2024-01-30T13:04:38;9.70;;;3.92;;
73283;SDS011;61519;60.050;18.582;2024-01-30T13:07:04;10.83;;;4.30;;
73283;SDS011;61519;60.050;18.582;2024-01-30T13:09:29;9.57;;;4.03;;
73283;SDS011;61519;60.050;18.582;2024-01-30T13:11:56;9.50;;;3.40;;
73283;SDS011;61519;60.050;18.582;2024-01-30T13:14:21;9.37;;;3.33;;
73283;SDS011;61519;60.050;18.582;2024-01-30T13:16:47;13.13;;;3.80;;
73283;SDS011;61519;60.050;18.582;2024-01-30T13:19:12;8.65;;;3.67;;
73283;SDS011;61519;60.050;18.582;2024-01-30T13:21:38;8.77;;;3.00;;
73283;SDS011;61519;60.050;18.582;2024-01-30T13:24:03;7.53;;;3.60;;
73283;SDS011;61519;60.050;18.582;2024-01-30T13:26:31;10.95;;;3.25;;
73283;SDS011;61519;60.050;18.582;2024-01-30T13:28:57;8.70;;;3.80;;
73283;SDS011;61519;60.050;18.582;2024-01-30T13:31:23;6.57;;;2.80;;
73283;SDS011;61519;60.050;18.582;2024-01-30T13:33:48;7.73;;;3.40;;
73283;SDS011;61519;60.050;18.582;2024-01-30T13:36:14;9.27;;;3.67;;
73283;SDS011;61519;60.050;18.582;2024-01-30T13:38:40;9.38;;;3.10;;
73283;SDS011;61519;60.050;18.582;2024-01-30T13:41:06;10.60;;;3.60;;
73283;SDS011;61519;60.050;18.582;2024-01-30T13:43:31;9.20;;;3.40;;
73283;SDS011;61519;60.050;18.582;2024-01-30T13:45:57;9.38;;;3.80;;
73283;SDS011;61519;60.050;18.582;2024-01-30T13:48:22;9.47;;;3.63;;
73283;SDS011;61519;60.050;18.582;2024-01-30T13:50:48;10.47;;;4.00;;
73283;SDS011;61519;60.050;18.582;2024-01-30T13:53:13;8.97;;;3.33;;
73283;SDS011;61519;60.050;18.582;2024-01-30T13:55:39;7.10;;;3.03;;
73283;SDS011;61519;60.050;18.582;2024-01-30T13:58:04;11.00;;;3.80;;
73283;SDS011;61519;60.050;18.582;2024-01-30T14:00:30;6.90;;;3.30;;
73283;SDS011;61519;60.050;18.582;2024-01-30T14:02:55;9.27;;;3.87;;
73283;SDS011;61519;60.050;18.582;2024-01-30T14:05:22;10.55;;;4.15;;
73283;SDS011;61519;60.050;18.582;2024-01-30T14:07:48;10.20;;;3.70;;
73283;SDS011;61519;60.050;18.582;2024-01-30T14:10:14;9.07;;;3.38;;
73283;SDS011;61519;60.050;18.582;2024-01-30T14:12:41;11.07;;;3.90;;
73283;SDS011;61519;60.050;18.582;2024-01-30T14:15:07;15.13;;;5.05;;
73283;SDS011;61519;60.050;18.582;2024-01-30T14:17:34;14.27;;;4.07;;
73283;SDS011;61519;60.050;18.582;2024-01-30T14:20:00;10.40;;;4.15;;
73283;SDS011;61519;60.050;18.582;2024-01-30T14:22:25;10.13;;;3.93;;
73283;SDS011;61519;60.050;18.582;2024-01-30T14:24:51;11.40;;;4.73;;
73283;SDS011;61519;60.050;18.582;2024-01-30T14:27:16;12.20;;;4.97;;
73283;SDS011;61519;60.050;18.582;2024-01-30T14:29:41;15.87;;;4.50;;
73283;SDS011;61519;60.050;18.582;2024-01-30T14:32:08;11.82;;;3.95;;